Time;durP1;ratioP1;P1;durP2;ratioP2;P2;SDS_P1;SDS_P2;PMS_P1;PMS_P2;Temp;Humidity;BMP_temperature;BMP_pressure;BME280_temperature;BME280_humidity;BME280_pressure;Samples;Min_cycle;Max_cycle;Signal;HPM_P1;HPM_P2
2021/06/11 00:01:31;;;;;;;26.40;19.55;;;16.70;99.90;;;;;;6180015;23;20067;-80
2021/06/11 00:03:57;;;;;;;28.02;19.80;;;16.60;99.90;;;;;;6182203;23;20092;-77
2021/06/11 00:06:22;;;;;;;29.55;20.13;;;16.60;99.90;;;;;;6154594;23;20065;-79
2021/06/11 00:08:50;;;;;;;27.45;19.77;;;16.60;99.90;;;;;;6177208;23;20428;-74
2021/06/11 00:11:15;;;;;;;26.33;19.23;;;16.60;99.90;;;;;;6178768;23;20021;-78
2021/06/11 00:13:41;;;;;;;24.70;18.15;;;16.60;99.90;;;;;;6181136;23;20017;-75
2021/06/11 00:16:07;;;;;;;23.67;17.92;;;16.50;99.90;;;;;;6179552;23;20376;-77
2021/06/11 00:18:33;;;;;;;24.55;18.35;;;16.50;99.90;;;;;;6190507;23;20009;-79
2021/06/11 00:20:59;;;;;;;24.23;17.30;;;16.50;99.90;;;;;;6178960;23;20113;-79
2021/06/11 00:23:25;;;;;;;22.50;17.35;;;16.40;99.90;;;;;;6179423;23;20087;-76
2021/06/11 00:25:51;;;;;;;25.83;17.15;;;16.40;99.90;;;;;;6179203;23;20461;-75
2021/06/11 00:28:17;;;;;;;27.13;18.58;;;16.40;99.90;;;;;;6154258;23;20031;-79
2021/06/11 00:30:43;;;;;;;23.13;17.10;;;16.40;99.90;;;;;;6188120;23;20017;-77
2021/06/11 00:33:13;;;;;;;21.67;17.38;;;16.40;99.90;;;;;;6155443;23;20012;-77
2021/06/11 00:35:40;;;;;;;21.70;15.93;;;16.30;99.90;;;;;;6154333;23;20019;-79
2021/06/11 00:38:08;;;;;;;23.27;16.38;;;16.30;99.90;;;;;;6190288;23;20013;-79
2021/06/11 00:40:35;;;;;;;25.42;17.27;;;16.30;99.90;;;;;;6191168;23;20012;-78
2021/06/11 00:43:01;;;;;;;25.13;17.02;;;16.20;99.90;;;;;;6179797;23;20089;-79
2021/06/11 00:45:27;;;;;;;23.23;17.33;;;16.30;99.90;;;;;;6182893;23;20437;-76
2021/06/11 00:47:54;;;;;;;21.55;16.33;;;16.30;99.90;;;;;;6164228;23;20053;-74
2021/06/11 00:50:28;;;;;;;21.02;16.15;;;16.40;99.90;;;;;;6191065;23;20071;-76
2021/06/11 00:52:54;;;;;;;26.23;16.80;;;16.30;99.90;;;;;;6179421;23;20017;-77
2021/06/11 00:55:21;;;;;;;21.75;16.35;;;16.30;99.90;;;;;;6131673;23;20115;-76
2021/06/11 00:57:48;;;;;;;22.90;17.80;;;16.20;99.90;;;;;;6181644;23;20023;-79
2021/06/11 01:00:15;;;;;;;24.60;18.85;;;16.20;99.90;;;;;;6191512;23;20021;-77
2021/06/11 01:02:41;;;;;;;29.80;21.52;;;16.20;99.90;;;;;;6189994;23;20442;-78
2021/06/11 01:05:09;;;;;;;32.53;22.30;;;16.20;99.90;;;;;;6191208;23;20017;-76
2021/06/11 01:07:37;;;;;;;31.55;21.92;;;16.20;99.90;;;;;;6179251;23;20468;-78
2021/06/11 01:10:04;;;;;;;29.25;20.83;;;16.20;99.90;;;;;;6180726;23;20025;-76
2021/06/11 01:12:31;;;;;;;29.17;21.10;;;16.10;99.90;;;;;;6188596;23;20434;-76
2021/06/11 01:15:00;;;;;;;33.65;21.95;;;16.20;99.90;;;;;;6178730;23;20520;-76
2021/06/11 01:17:27;;;;;;;30.75;22.55;;;16.10;99.90;;;;;;6188140;23;20059;-78
2021/06/11 01:19:53;;;;;;;31.08;23.20;;;16.10;99.90;;;;;;6153075;23;20021;-80
2021/06/11 01:22:51;;;;;;;31.90;23.08;;;16.10;99.90;;;;;;6152002;23;20048;-79
2021/06/11 01:25:34;;;;;;;35.05;22.65;;;16.10;99.90;;;;;;6064476;23;20386;-78
2021/06/11 01:28:02;;;;;;;35.78;24.30;;;16.10;99.90;;;;;;6089556;23;20022;-77
2021/06/11 01:30:30;;;;;;;31.23;23.55;;;16.10;99.90;;;;;;6093259;23;20454;-78
2021/06/11 01:32:58;;;;;;;33.38;24.33;;;16.10;99.90;;;;;;6099249;23;20022;-78
2021/06/11 01:35:33;;;;;;;35.45;23.70;;;16.10;99.90;;;;;;6098244;23;20442;-78
2021/06/11 01:38:02;;;;;;;30.92;22.65;;;16.00;99.90;;;;;;6086617;23;20066;-78
2021/06/11 01:40:30;;;;;;;29.52;22.33;;;16.00;99.90;;;;;;6098408;23;20018;-79
2021/06/11 01:42:59;;;;;;;27.23;20.60;;;16.00;99.90;;;;;;6087651;23;20340;-79
2021/06/11 01:45:25;;;;;;;27.85;21.05;;;15.90;99.90;;;;;;6087131;23;20215;-77
2021/06/11 01:47:58;;;;;;;27.65;20.13;;;15.90;99.90;;;;;;6097744;23;20121;-78
2021/06/11 01:50:33;;;;;;;32.30;20.60;;;15.90;99.90;;;;;;6089980;23;20187;-77
2021/06/11 01:53:01;;;;;;;27.92;20.33;;;15.80;99.90;;;;;;6088062;23;20046;-79
2021/06/11 01:55:31;;;;;;;26.50;19.65;;;15.80;99.90;;;;;;6088889;23;20085;-79
2021/06/11 01:57:59;;;;;;;24.42;18.95;;;15.80;99.90;;;;;;6095288;23;20026;-77
2021/06/11 02:00:27;;;;;;;24.95;18.75;;;15.80;99.90;;;;;;6088359;23;20633;-76
2021/06/11 02:02:53;;;;;;;30.20;20.63;;;15.70;99.90;;;;;;6155507;23;20028;-77
2021/06/11 02:05:20;;;;;;;28.48;21.00;;;15.70;99.90;;;;;;6180763;23;20027;-77
2021/06/11 02:07:48;;;;;;;27.42;20.48;;;15.60;99.90;;;;;;6178610;23;20442;-79
2021/06/11 02:10:19;;;;;;;26.83;20.02;;;15.60;99.90;;;;;;6152636;23;20027;-77
2021/06/11 02:12:45;;;;;;;25.63;19.52;;;15.60;99.90;;;;;;6179396;23;20021;-78
2021/06/11 02:15:13;;;;;;;26.23;19.65;;;15.60;99.90;;;;;;6187049;23;20020;-76
2021/06/11 02:17:42;;;;;;;24.85;19.60;;;15.60;99.90;;;;;;6176389;23;20100;-77
2021/06/11 02:20:13;;;;;;;28.55;20.33;;;15.50;99.90;;;;;;6158335;23;20537;-80
2021/06/11 02:22:42;;;;;;;28.30;19.45;;;15.50;99.90;;;;;;6149075;23;20021;-78
2021/06/11 02:25:10;;;;;;;28.63;20.25;;;15.50;99.90;;;;;;6182001;23;20164;-79
2021/06/11 02:27:37;;;;;;;29.67;20.55;;;15.50;99.90;;;;;;6181997;23;20018;-78
2021/06/11 02:30:17;;;;;;;26.75;19.63;;;15.50;99.90;;;;;;6172532;23;20045;-79
2021/06/11 02:32:43;;;;;;;28.02;19.83;;;15.50;99.90;;;;;;6173677;23;20021;-78
2021/06/11 02:35:13;;;;;;;28.20;20.45;;;15.40;99.90;;;;;;6147636;23;20023;-79
2021/06/11 02:37:39;;;;;;;27.15;19.60;;;15.50;99.90;;;;;;6159419;23;20511;-81
2021/06/11 02:40:06;;;;;;;32.03;22.10;;;15.40;99.90;;;;;;6172619;23;20072;-80
2021/06/11 02:42:34;;;;;;;26.00;19.98;;;15.40;99.90;;;;;;6181495;23;20032;-78
2021/06/11 02:45:08;;;;;;;31.90;21.38;;;15.40;99.90;;;;;;6172987;23;20017;-78
2021/06/11 02:47:37;;;;;;;30.90;21.15;;;15.40;99.90;;;;;;6173514;23;20010;-78
2021/06/11 02:50:15;;;;;;;31.48;21.45;;;15.40;99.90;;;;;;6159803;23;20097;-80
2021/06/11 02:52:46;;;;;;;31.27;21.02;;;15.30;99.90;;;;;;6172618;23;20024;-77
2021/06/11 02:55:15;;;;;;;33.65;22.98;;;15.30;99.90;;;;;;6158887;23;20029;-78
2021/06/11 02:57:49;;;;;;;31.95;21.35;;;15.40;99.90;;;;;;6151087;23;20080;-78
2021/06/11 03:00:17;;;;;;;31.15;21.48;;;15.40;99.90;;;;;;6156457;23;20457;-79
2021/06/11 03:02:49;;;;;;;35.95;22.80;;;15.40;99.90;;;;;;6148900;23;20014;-80
2021/06/11 03:05:19;;;;;;;34.33;22.88;;;15.30;99.90;;;;;;6122930;23;20013;-79
2021/06/11 03:07:51;;;;;;;32.03;20.92;;;15.30;99.90;;;;;;6152566;23;20031;-77
2021/06/11 03:10:29;;;;;;;28.65;20.83;;;15.30;99.90;;;;;;6163416;23;20025;-77
2021/06/11 03:13:01;;;;;;;29.23;21.17;;;15.20;99.90;;;;;;6164605;23;20337;-77
2021/06/11 03:15:30;;;;;;;27.98;20.45;;;15.30;99.90;;;;;;6164610;23;20013;-77
2021/06/11 03:18:03;;;;;;;30.33;21.80;;;15.30;99.90;;;;;;6152871;23;20017;-80
2021/06/11 03:20:40;;;;;;;33.55;19.80;;;15.30;99.90;;;;;;6165967;23;20041;-77
2021/06/11 03:23:32;;;;;;;28.95;21.33;;;15.30;99.90;;;;;;6132321;23;20028;-78
2021/06/11 03:26:02;;;;;;;33.30;21.02;;;15.30;99.90;;;;;;6132662;23;20021;-80
2021/06/11 03:28:53;;;;;;;30.45;21.70;;;15.20;99.90;;;;;;6156340;23;20354;-80
2021/06/11 03:31:23;;;;;;;28.17;20.55;;;15.30;99.90;;;;;;6148872;23;20489;-76
2021/06/11 03:33:53;;;;;;;30.17;21.13;;;15.30;99.90;;;;;;6121772;23;20018;-78
2021/06/11 03:36:42;;;;;;;29.92;20.48;;;15.30;99.90;;;;;;6128352;23;20021;-77
2021/06/11 03:39:18;;;;;;;36.83;21.90;;;15.30;99.90;;;;;;6134104;23;20017;-80
2021/06/11 03:41:45;;;;;;;31.45;21.35;;;15.40;99.90;;;;;;6124563;23;20093;-79
2021/06/11 03:44:13;;;;;;;29.95;21.70;;;15.30;99.90;;;;;;6124043;23;20367;-78
2021/06/11 03:46:42;;;;;;;29.55;21.40;;;15.30;99.90;;;;;;6132432;23;20021;-80
2021/06/11 03:49:09;;;;;;;37.35;22.60;;;15.40;99.90;;;;;;6147489;23;20037;-77
2021/06/11 03:51:38;;;;;;;32.13;22.60;;;15.40;99.90;;;;;;6160601;23;20013;-78
2021/06/11 03:54:08;;;;;;;31.98;22.25;;;15.50;99.90;;;;;;6120774;23;20021;-79
2021/06/11 03:56:37;;;;;;;35.22;23.40;;;15.40;99.90;;;;;;6151313;23;20013;-81
2021/06/11 03:59:04;;;;;;;34.55;22.48;;;15.40;99.90;;;;;;6121951;23;20374;-79
2021/06/11 04:01:34;;;;;;;29.23;22.00;;;15.40;99.90;;;;;;6133960;23;20022;-77
2021/06/11 04:04:02;;;;;;;39.90;24.52;;;15.50;99.90;;;;;;6149926;23;20370;-79
2021/06/11 04:06:35;;;;;;;37.65;25.55;;;15.50;99.90;;;;;;6159818;23;20037;-76
2021/06/11 04:09:06;;;;;;;37.58;25.73;;;15.60;99.90;;;;;;6149774;23;20045;-77
2021/06/11 04:11:40;;;;;;;42.50;26.95;;;15.70;99.90;;;;;;6158722;23;20036;-80
2021/06/11 04:14:07;;;;;;;39.17;26.25;;;15.80;99.90;;;;;;6127453;23;20021;-77
2021/06/11 04:16:39;;;;;;;38.65;27.77;;;15.90;99.90;;;;;;6133519;23;20009;-79
2021/06/11 04:19:09;;;;;;;42.65;27.83;;;16.00;99.90;;;;;;6149803;23;20017;-78
2021/06/11 04:21:35;;;;;;;41.60;27.15;;;16.00;99.90;;;;;;6159950;23;20021;-78
2021/06/11 04:24:08;;;;;;;40.97;26.13;;;16.20;99.90;;;;;;6153231;23;20021;-77
2021/06/11 04:26:40;;;;;;;38.92;26.00;;;16.40;99.90;;;;;;6154370;23;20020;-80
2021/06/11 04:29:12;;;;;;;38.75;26.38;;;16.80;99.90;;;;;;6185317;23;20013;-80
2021/06/11 04:31:39;;;;;;;38.65;26.15;;;17.00;99.90;;;;;;6152396;23;20342;-80
2021/06/11 04:34:05;;;;;;;38.50;26.42;;;17.40;99.90;;;;;;6187180;23;20073;-80
2021/06/11 04:36:33;;;;;;;35.10;24.35;;;18.00;99.90;;;;;;6154855;23;20017;-81
2021/06/11 04:38:59;;;;;;;33.88;24.55;;;18.40;99.90;;;;;;6189316;23;20020;-78
2021/06/11 04:41:27;;;;;;;31.15;23.55;;;18.90;99.90;;;;;;6179001;23;20075;-78
2021/06/11 04:43:55;;;;;;;31.25;24.52;;;19.40;99.90;;;;;;6179178;23;20024;-79
2021/06/11 04:46:21;;;;;;;37.45;24.92;;;19.60;99.90;;;;;;6187479;23;20040;-78
2021/06/11 04:48:49;;;;;;;31.65;24.27;;;19.80;99.90;;;;;;6181416;23;20385;-80
2021/06/11 04:51:15;;;;;;;38.17;24.85;;;20.10;99.90;;;;;;6156934;23;20012;-82
2021/06/11 04:53:41;;;;;;;29.58;20.65;;;20.30;99.90;;;;;;6154105;23;20021;-79
2021/06/11 04:56:08;;;;;;;34.90;24.45;;;20.60;99.90;;;;;;6166708;23;20432;-80
2021/06/11 04:58:38;;;;;;;36.45;26.50;;;20.80;99.90;;;;;;6187974;23;20030;-78
2021/06/11 05:01:08;;;;;;;41.88;26.55;;;20.00;99.90;;;;;;6155780;23;20016;-79
2021/06/11 05:03:34;;;;;;;37.33;25.02;;;19.50;99.90;;;;;;6161517;23;20337;-76
2021/06/11 05:06:01;;;;;;;43.95;27.13;;;19.10;99.90;;;;;;6194329;23;20009;-76
2021/06/11 05:08:28;;;;;;;38.65;26.75;;;18.90;99.90;;;;;;6181320;23;20013;-80
2021/06/11 05:10:55;;;;;;;36.53;25.92;;;18.70;99.90;;;;;;6192502;23;20087;-76
2021/06/11 05:13:21;;;;;;;40.55;26.80;;;18.50;99.90;;;;;;6183791;23;20017;-80
2021/06/11 05:15:47;;;;;;;36.20;27.15;;;18.50;99.90;;;;;;6193055;23;20450;-79
2021/06/11 05:18:14;;;;;;;39.05;27.48;;;18.50;99.90;;;;;;6154513;23;20021;-77
2021/06/11 05:20:50;;;;;;;39.47;26.60;;;18.40;99.90;;;;;;6156819;23;20373;-76
2021/06/11 05:23:18;;;;;;;39.40;26.38;;;18.40;99.90;;;;;;6165334;23;20021;-78
2021/06/11 05:25:46;;;;;;;39.42;26.58;;;18.50;99.90;;;;;;6161785;23;20041;-78
2021/06/11 05:28:13;;;;;;;38.35;25.17;;;18.40;99.90;;;;;;6198477;23;20209;-78
2021/06/11 05:30:39;;;;;;;38.70;25.45;;;18.40;99.90;;;;;;6156997;23;20017;-78
2021/06/11 05:33:07;;;;;;;37.70;25.38;;;18.50;99.90;;;;;;6192590;23;20024;-77
2021/06/11 05:35:34;;;;;;;37.15;26.40;;;18.40;99.90;;;;;;6156102;23;20088;-77
2021/06/11 05:38:04;;;;;;;38.58;27.50;;;18.50;99.90;;;;;;6181114;23;20021;-77
2021/06/11 05:40:34;;;;;;;40.92;28.20;;;18.40;99.90;;;;;;6166413;23;20080;-77
2021/06/11 05:43:01;;;;;;;42.38;28.40;;;18.50;99.90;;;;;;6165594;23;20017;-78
2021/06/11 05:45:31;;;;;;;46.90;31.33;;;18.50;99.90;;;;;;6158314;23;20044;-77
2021/06/11 05:48:02;;;;;;;54.53;35.58;;;18.60;99.90;;;;;;6154538;23;20086;-79
2021/06/11 05:50:31;;;;;;;58.58;36.80;;;18.50;99.90;;;;;;6130617;23;20445;-79
2021/06/11 05:52:57;;;;;;;61.25;38.22;;;18.60;99.90;;;;;;6192390;23;20442;-77
2021/06/11 05:55:31;;;;;;;62.65;39.35;;;18.60;99.90;;;;;;6193198;23;20013;-76
2021/06/11 05:58:02;;;;;;;70.85;40.97;;;18.70;99.90;;;;;;6157166;23;20079;-79
2021/06/11 06:00:28;;;;;;;64.30;42.72;;;18.70;99.90;;;;;;6183500;23;20017;-77
2021/06/11 06:02:54;;;;;;;71.93;43.50;;;18.80;99.90;;;;;;6191163;23;20072;-80
2021/06/11 06:05:20;;;;;;;75.70;44.65;;;18.80;99.90;;;;;;6157313;23;20021;-77
2021/06/11 06:07:46;;;;;;;68.85;42.85;;;18.90;99.90;;;;;;6156359;23;20064;-79
2021/06/11 06:10:14;;;;;;;71.63;43.33;;;18.90;99.90;;;;;;6158404;23;20103;-79
2021/06/11 06:12:40;;;;;;;70.10;42.10;;;19.10;99.90;;;;;;6183490;23;20009;-78
2021/06/11 06:15:07;;;;;;;71.53;42.35;;;19.10;99.90;;;;;;6184218;23;20059;-78
2021/06/11 06:17:38;;;;;;;68.47;40.67;;;19.20;99.90;;;;;;6133542;23;20016;-78
2021/06/11 06:20:08;;;;;;;68.70;40.25;;;19.20;99.90;;;;;;6193383;23;20017;-80
2021/06/11 06:22:34;;;;;;;66.20;41.40;;;19.30;99.90;;;;;;6150926;23;20026;-78
2021/06/11 06:25:03;;;;;;;62.33;38.03;;;19.30;99.90;;;;;;6153836;23;20088;-80
2021/06/11 06:27:28;;;;;;;58.05;36.85;;;19.40;99.90;;;;;;6176028;23;20104;-78
2021/06/11 06:29:54;;;;;;;55.08;33.70;;;19.50;99.90;;;;;;6156785;23;20473;-78
2021/06/11 06:32:20;;;;;;;55.15;34.13;;;19.40;99.90;;;;;;6176814;23;20013;-79
2021/06/11 06:34:46;;;;;;;62.42;35.47;;;19.40;99.90;;;;;;6153017;23;20021;-79
2021/06/11 06:37:14;;;;;;;55.75;34.78;;;19.40;99.90;;;;;;6176340;23;20748;-77
2021/06/11 06:39:42;;;;;;;52.67;34.92;;;19.50;99.90;;;;;;6153387;23;20044;-79
2021/06/11 06:42:08;;;;;;;55.28;35.33;;;19.60;99.90;;;;;;6152408;23;20044;-76
2021/06/11 06:44:39;;;;;;;52.58;33.83;;;19.60;99.90;;;;;;6157034;23;20014;-77
2021/06/11 06:47:07;;;;;;;52.03;31.38;;;19.70;99.90;;;;;;6177404;23;20067;-78
2021/06/11 06:49:34;;;;;;;52.13;30.77;;;19.80;99.90;;;;;;6164808;23;20434;-81
2021/06/11 06:52:01;;;;;;;47.35;29.77;;;19.90;99.90;;;;;;6176001;23;20036;-79
2021/06/11 06:54:30;;;;;;;40.53;27.85;;;19.90;99.90;;;;;;6161998;23;20018;-81
2021/06/11 06:56:56;;;;;;;38.70;26.05;;;19.90;99.90;;;;;;6188105;23;20430;-77
2021/06/11 06:59:22;;;;;;;38.00;24.35;;;20.00;99.90;;;;;;6183761;23;20044;-78
2021/06/11 07:01:49;;;;;;;37.28;24.05;;;20.10;99.90;;;;;;6153092;23;20021;-81
2021/06/11 07:04:17;;;;;;;39.13;23.88;;;20.10;99.90;;;;;;6154724;23;20064;-79
2021/06/11 07:06:49;;;;;;;34.97;22.80;;;20.10;99.90;;;;;;6164863;23;20132;-84
2021/06/11 07:09:16;;;;;;;35.58;24.08;;;20.20;99.90;;;;;;6187142;23;20453;-77
2021/06/11 07:11:43;;;;;;;34.55;22.17;;;20.30;99.90;;;;;;6162951;23;20073;-79
2021/06/11 07:14:11;;;;;;;35.83;22.77;;;20.40;99.90;;;;;;6183950;23;20074;-78
2021/06/11 07:16:38;;;;;;;36.47;21.70;;;20.90;99.90;;;;;;6153082;23;20021;-78
2021/06/11 07:19:24;;;;;;;30.15;21.00;;;21.10;99.90;;;;;;6153577;23;20017;-82
2021/06/11 07:21:52;;;;;;;31.65;19.80;;;21.20;99.90;;;;;;6169355;23;20013;-81
2021/06/11 07:24:18;;;;;;;31.85;19.75;;;21.10;99.90;;;;;;6157720;23;20025;-81
2021/06/11 07:26:44;;;;;;;30.98;19.13;;;21.00;99.90;;;;;;6194146;23;20013;-77
2021/06/11 07:29:12;;;;;;;27.13;18.90;;;21.10;99.90;;;;;;6164867;23;20020;-81
2021/06/11 07:31:38;;;;;;;24.35;18.05;;;21.10;99.90;;;;;;6194191;23;20013;-78
2021/06/11 07:34:04;;;;;;;27.42;18.40;;;21.30;99.90;;;;;;6194054;23;20434;-82
2021/06/11 07:36:30;;;;;;;28.42;18.55;;;21.50;99.90;;;;;;6184322;23;20088;-82
2021/06/11 07:38:56;;;;;;;29.30;18.10;;;21.50;99.90;;;;;;6183706;23;20047;-80
2021/06/11 07:41:22;;;;;;;23.40;17.15;;;21.50;99.90;;;;;;6158057;23;20031;-82
2021/06/11 07:43:51;;;;;;;22.95;16.73;;;21.40;99.90;;;;;;6192108;23;20047;-80
2021/06/11 07:46:22;;;;;;;22.45;16.75;;;21.40;99.90;;;;;;6184343;23;20041;-80
2021/06/11 07:48:49;;;;;;;23.40;16.95;;;21.40;99.90;;;;;;6157724;23;20021;-81
2021/06/11 07:51:35;;;;;;;24.27;17.45;;;21.40;99.90;;;;;;6162110;23;20449;-77
2021/06/11 07:54:03;;;;;;;24.13;16.17;;;21.40;99.90;;;;;;6193326;23;20044;-82
2021/06/11 07:56:31;;;;;;;23.67;16.65;;;21.50;99.90;;;;;;6168488;23;20035;-79
2021/06/11 07:59:01;;;;;;;20.88;16.25;;;21.60;99.90;;;;;;6165943;23;20013;-79
2021/06/11 08:01:34;;;;;;;24.48;15.48;;;21.60;99.90;;;;;;6159553;23;20052;-82
2021/06/11 08:04:05;;;;;;;24.30;15.75;;;21.80;99.90;;;;;;6159584;23;20043;-77
2021/06/11 08:06:33;;;;;;;23.73;16.05;;;21.90;99.90;;;;;;6133370;23;20361;-79
2021/06/11 08:09:00;;;;;;;21.45;15.93;;;22.00;99.90;;;;;;6133655;23;20294;-82
2021/06/11 08:11:37;;;;;;;23.77;15.57;;;22.10;99.90;;;;;;6170482;23;20020;-81
2021/06/11 08:14:03;;;;;;;19.30;14.93;;;22.30;99.90;;;;;;6183747;23;20517;-80
2021/06/11 08:16:29;;;;;;;20.92;15.40;;;22.30;99.90;;;;;;6157895;23;20013;-79
2021/06/11 08:18:56;;;;;;;21.52;15.82;;;22.40;99.90;;;;;;6183972;23;20076;-80
2021/06/11 08:21:25;;;;;;;19.38;14.70;;;22.40;99.90;;;;;;6159456;23;20374;-82
2021/06/11 08:23:52;;;;;;;19.75;15.25;;;22.50;99.90;;;;;;6153614;23;20032;-80
2021/06/11 08:26:37;;;;;;;19.67;14.55;;;22.60;99.90;;;;;;6153047;23;20017;-81
2021/06/11 08:29:24;;;;;;;20.08;13.75;;;22.70;99.90;;;;;;6153313;23;20029;-80
2021/06/11 08:31:53;;;;;;;19.73;13.40;;;22.70;99.90;;;;;;6187539;23;20092;-81
2021/06/11 08:34:20;;;;;;;21.35;15.00;;;22.70;99.90;;;;;;6164029;23;20083;-81
2021/06/11 08:36:46;;;;;;;18.58;13.90;;;22.70;99.90;;;;;;6188921;23;20412;-81
2021/06/11 08:39:16;;;;;;;19.83;13.40;;;22.70;99.90;;;;;;6156221;23;20014;-83
2021/06/11 08:41:43;;;;;;;17.67;12.50;;;22.90;99.90;;;;;;6165753;23;20096;-79
2021/06/11 08:44:12;;;;;;;15.60;12.18;;;23.30;99.90;;;;;;6162740;23;20067;-82
2021/06/11 08:46:46;;;;;;;15.05;11.07;;;23.30;99.90;;;;;;6164421;23;20026;-82
2021/06/11 08:49:12;;;;;;;13.10;11.05;;;23.40;99.90;;;;;;6153777;23;20032;-80
2021/06/11 08:51:40;;;;;;;13.23;10.43;;;23.50;99.90;;;;;;6188505;23;20010;-80
2021/06/11 08:54:07;;;;;;;12.23;9.32;;;23.60;99.90;;;;;;6153536;23;20415;-83
2021/06/11 08:56:34;;;;;;;12.20;8.40;;;23.80;99.90;;;;;;6165725;23;20020;-81
2021/06/11 08:59:00;;;;;;;14.80;10.63;;;23.90;99.90;;;;;;6186463;23;20450;-82
2021/06/11 09:01:32;;;;;;;12.18;10.25;;;23.80;99.90;;;;;;6154037;23;20013;-80
2021/06/11 09:03:59;;;;;;;12.45;10.10;;;23.80;99.90;;;;;;6158980;23;20064;-81
2021/06/11 09:06:27;;;;;;;17.98;10.35;;;23.80;99.90;;;;;;6165569;23;20017;-82
2021/06/11 09:09:06;;;;;;;17.80;12.10;;;23.70;99.90;;;;;;6185939;23;20014;-80
2021/06/11 09:11:49;;;;;;;14.73;12.05;;;23.50;99.90;;;;;;6176433;23;20014;-83
2021/06/11 09:14:19;;;;;;;16.15;12.90;;;23.40;99.90;;;;;;6185097;23;20022;-80
2021/06/11 09:16:51;;;;;;;15.88;12.65;;;23.30;99.90;;;;;;6165724;23;20084;-79
2021/06/11 09:19:20;;;;;;;15.75;12.52;;;23.30;99.90;;;;;;6155790;23;20044;-81
2021/06/11 09:21:53;;;;;;;18.98;13.48;;;23.30;99.90;;;;;;6154064;23;20018;-79
2021/06/11 09:24:31;;;;;;;20.25;14.13;;;23.20;99.90;;;;;;6188890;23;20021;-80
2021/06/11 09:27:04;;;;;;;19.17;15.07;;;23.40;99.90;;;;;;6129695;23;20022;-80
2021/06/11 09:29:33;;;;;;;21.67;13.23;;;23.50;99.90;;;;;;6155971;23;20060;-81
2021/06/11 09:32:31;;;;;;;13.50;10.32;;;23.60;99.90;;;;;;6154231;23;20155;-81
2021/06/11 09:35:00;;;;;;;16.05;12.25;;;23.60;99.90;;;;;;6188595;23;20381;-81
2021/06/11 09:37:34;;;;;;;14.80;11.90;;;23.70;99.90;;;;;;6153356;23;20025;-82
2021/06/11 09:40:10;;;;;;;22.35;15.10;;;23.90;99.90;;;;;;6177583;23;20028;-83
2021/06/11 09:42:41;;;;;;;20.25;13.93;;;24.20;99.90;;;;;;6163993;23;20013;-81
2021/06/11 09:45:08;;;;;;;20.52;13.98;;;24.20;99.90;;;;;;6163997;23;20014;-82
2021/06/11 09:47:43;;;;;;;13.13;11.23;;;24.00;99.90;;;;;;6164931;23;20013;-80
2021/06/11 09:50:21;;;;;;;14.48;10.32;;;24.00;99.90;;;;;;6165693;23;20019;-80
2021/06/11 09:52:59;;;;;;;14.70;11.77;;;24.00;99.90;;;;;;6155614;23;20023;-82
2021/06/11 09:55:29;;;;;;;19.23;11.60;;;23.90;99.90;;;;;;6166121;23;20014;-83
2021/06/11 09:58:16;;;;;;;17.75;11.75;;;24.10;99.90;;;;;;6178952;23;20056;-80
2021/06/11 10:00:53;;;;;;;14.32;11.63;;;24.30;99.90;;;;;;6163928;23;20442;-82
2021/06/11 10:03:27;;;;;;;15.75;11.70;;;24.50;99.90;;;;;;6161611;23;20044;-80
2021/06/11 10:05:55;;;;;;;19.13;12.02;;;24.60;99.90;;;;;;6179123;23;20438;-81
2021/06/11 10:08:22;;;;;;;15.60;12.60;;;24.70;99.90;;;;;;6178345;23;20099;-82
2021/06/11 10:10:50;;;;;;;16.27;12.48;;;24.70;99.90;;;;;;6155947;23;20438;-80
2021/06/11 10:13:17;;;;;;;19.80;12.20;;;25.00;99.90;;;;;;6165248;23;20120;-82
2021/06/11 10:15:45;;;;;;;16.98;11.63;;;25.00;99.90;;;;;;6156641;23;20061;-80
2021/06/11 10:18:12;;;;;;;18.15;12.20;;;24.90;99.90;;;;;;6129383;23;20020;-80
2021/06/11 10:20:39;;;;;;;25.33;11.93;;;24.90;99.90;;;;;;6188473;23;20434;-80
2021/06/11 10:23:07;;;;;;;29.77;12.10;;;24.70;99.90;;;;;;6193014;23;20112;-79
2021/06/11 10:25:33;;;;;;;28.30;12.13;;;24.60;99.90;;;;;;6183251;23;20017;-84
2021/06/11 10:28:01;;;;;;;21.05;9.63;;;24.60;99.90;;;;;;6159071;23;20009;-81
2021/06/11 10:30:28;;;;;;;22.25;10.43;;;24.60;99.90;;;;;;6133959;23;20342;-81
2021/06/11 10:32:55;;;;;;;20.42;11.77;;;24.70;99.90;;;;;;6158361;23;20488;-80
2021/06/11 10:35:53;;;;;;;15.93;11.55;;;24.90;99.90;;;;;;6168548;23;20028;-82
2021/06/11 10:38:35;;;;;;;18.38;11.52;;;25.10;99.90;;;;;;6040813;23;20015;-80
2021/06/11 10:41:04;;;;;;;19.55;11.13;;;25.10;99.90;;;;;;6036266;23;20018;-82
2021/06/11 10:43:34;;;;;;;17.80;11.00;;;25.40;99.90;;;;;;6036426;23;20035;-82
2021/06/11 10:46:00;;;;;;;15.95;11.02;;;25.50;99.90;;;;;;6036460;23;20019;-83
2021/06/11 10:49:06;;;;;;;17.85;13.65;;;25.60;99.90;;;;;;6039560;23;20022;-84
2021/06/11 10:51:43;;;;;;;17.85;12.45;;;25.40;99.90;;;;;;6012423;23;20103;-81
2021/06/11 10:54:23;;;;;;;19.13;11.48;;;25.40;99.90;;;;;;6035305;23;20118;-81
2021/06/11 10:57:01;;;;;;;17.67;12.73;;;25.60;99.90;;;;;;6012566;23;20078;-83
2021/06/11 10:59:48;;;;;;;17.73;12.02;;;25.60;99.90;;;;;;6042018;23;20023;-82
2021/06/11 11:02:16;;;;;;;18.35;12.32;;;25.80;99.90;;;;;;6036099;23;20035;-80
2021/06/11 11:04:48;;;;;;;33.03;10.80;;;25.50;99.90;;;;;;6036423;23;20031;-83
2021/06/11 11:07:27;;;;;;;26.38;10.63;;;25.30;99.90;;;;;;6011529;23;20023;-83
2021/06/11 11:10:06;;;;;;;15.95;10.32;;;25.50;99.90;;;;;;6036395;23;20168;-79
2021/06/11 11:12:57;;;;;;;21.85;11.63;;;25.50;99.90;;;;;;6045292;23;20067;-82
2021/06/11 11:15:35;;;;;;;21.33;11.25;;;25.10;99.90;;;;;;6184855;23;20048;-80
2021/06/11 11:18:03;;;;;;;22.42;11.43;;;25.30;99.90;;;;;;6157960;23;20013;-82
2021/06/11 11:20:35;;;;;;;29.02;10.55;;;25.40;99.90;;;;;;6157984;23;20031;-79
2021/06/11 11:23:04;;;;;;;15.02;8.40;;;25.10;99.90;;;;;;6182206;23;20021;-83
2021/06/11 11:25:32;;;;;;;13.13;8.60;;;25.30;99.90;;;;;;6182146;23;20027;-80
2021/06/11 11:28:00;;;;;;;13.40;9.30;;;25.50;99.90;;;;;;6157854;23;20005;-82
2021/06/11 11:30:28;;;;;;;11.90;9.23;;;25.60;99.90;;;;;;6185125;23;20013;-79
2021/06/11 11:32:55;;;;;;;12.10;9.70;;;26.20;99.90;;;;;;6194240;23;20083;-82
2021/06/11 11:35:28;;;;;;;13.57;9.27;;;26.30;99.90;;;;;;6133468;23;20148;-83
2021/06/11 11:37:55;;;;;;;11.35;7.82;;;26.00;99.90;;;;;;6192007;23;20013;-83
2021/06/11 11:40:24;;;;;;;10.57;6.88;;;25.80;99.90;;;;;;6184503;23;20013;-80
2021/06/11 11:42:55;;;;;;;10.85;7.80;;;25.60;99.90;;;;;;6194232;23;20009;-81
2021/06/11 11:45:27;;;;;;;9.02;6.60;;;25.70;99.90;;;;;;6160501;23;20071;-83
2021/06/11 11:48:04;;;;;;;10.23;6.53;;;26.10;99.90;;;;;;6182689;23;20013;-81
2021/06/11 11:50:33;;;;;;;7.55;6.80;;;26.70;99.90;;;;;;6184139;23;20092;-79
2021/06/11 11:53:00;;;;;;;7.63;6.82;;;26.70;99.90;;;;;;6193772;23;20016;-80
2021/06/11 11:55:29;;;;;;;7.95;6.72;;;27.00;99.90;;;;;;6157718;23;20341;-83
2021/06/11 11:57:56;;;;;;;11.35;7.28;;;26.90;99.90;;;;;;6193798;23;20013;-81
2021/06/11 12:00:23;;;;;;;7.75;6.50;;;27.00;99.90;;;;;;6184001;23;20013;-80
2021/06/11 12:02:49;;;;;;;10.45;6.90;;;27.20;99.90;;;;;;6192278;23;20017;-79
2021/06/11 12:05:16;;;;;;;8.55;6.38;;;27.20;99.90;;;;;;6157698;23;20060;-82
2021/06/11 12:07:42;;;;;;;9.75;6.93;;;26.80;99.90;;;;;;6183546;23;20434;-79
2021/06/11 12:10:09;;;;;;;8.45;7.55;;;26.90;99.90;;;;;;6158120;23;20057;-80
2021/06/11 12:12:35;;;;;;;6.40;5.80;;;26.60;99.90;;;;;;6182731;23;20024;-81
2021/06/11 12:15:01;;;;;;;7.70;6.90;;;26.30;99.90;;;;;;6188612;23;20017;-80
2021/06/11 12:17:27;;;;;;;9.13;8.20;;;26.30;99.90;;;;;;6196006;23;20134;-81
2021/06/11 12:19:53;;;;;;;12.82;9.60;;;26.10;99.90;;;;;;6184815;23;20084;-80
2021/06/11 12:22:20;;;;;;;14.65;10.20;;;26.50;99.90;;;;;;6158818;23;20350;-82
2021/06/11 12:24:49;;;;;;;9.73;8.50;;;26.50;99.90;;;;;;6160293;23;20043;-80
2021/06/11 12:27:15;;;;;;;7.45;6.30;;;26.80;99.90;;;;;;6185811;23;20016;-80
2021/06/11 12:29:41;;;;;;;6.55;5.20;;;26.90;99.90;;;;;;6186008;23;20036;-81
2021/06/11 12:32:07;;;;;;;11.05;5.80;;;26.90;99.90;;;;;;6195719;23;20013;-81
2021/06/11 12:34:33;;;;;;;6.28;5.63;;;26.80;99.90;;;;;;6170690;23;20016;-79
2021/06/11 12:37:00;;;;;;;7.47;6.35;;;27.30;99.90;;;;;;6159574;23;20024;-80
2021/06/11 12:39:31;;;;;;;7.38;6.57;;;26.80;99.90;;;;;;6194726;23;20020;-80
2021/06/11 12:42:19;;;;;;;7.28;6.47;;;26.20;99.90;;;;;;6163713;23;20013;-83